sensor_id;sensor_type;location;lat;lon;timestamp;pressure;altitude;pressure_sealevel;temperature;humidity
62103;BME280;48077;48.104;11.702;2023-03-04T00:00:13;95824.66;;;-1.77;100.00
62103;BME280;48077;48.104;11.702;2023-03-04T00:02:36;95820.75;;;-1.91;100.00
62103;BME280;48077;48.104;11.702;2023-03-04T00:05:00;95827.19;;;-1.85;100.00
62103;BME280;48077;48.104;11.702;2023-03-04T00:07:25;95798.97;;;-2.09;100.00
62103;BME280;48077;48.104;11.702;2023-03-04T00:09:49;95816.09;;;-1.97;100.00
62103;BME280;48077;48.104;11.702;2023-03-04T00:12:12;95826.66;;;-1.89;100.00
62103;BME280;48077;48.104;11.702;2023-03-04T00:14:35;95802.81;;;-2.04;100.00
62103;BME280;48077;48.104;11.702;2023-03-04T00:16:59;95808.31;;;-2.07;100.00
62103;BME280;48077;48.104;11.702;2023-03-04T00:19:24;95817.50;;;-2.03;100.00
62103;BME280;48077;48.104;11.702;2023-03-04T00:21:48;95809.72;;;-2.12;100.00
62103;BME280;48077;48.104;11.702;2023-03-04T00:24:13;95816.91;;;-2.14;100.00
62103;BME280;48077;48.104;11.702;2023-03-04T00:26:37;95802.63;;;-2.20;100.00
62103;BME280;48077;48.104;11.702;2023-03-04T00:29:00;95809.72;;;-2.12;100.00
62103;BME280;48077;48.104;11.702;2023-03-04T00:31:23;95834.41;;;-1.97;100.00
62103;BME280;48077;48.104;11.702;2023-03-04T00:33:47;95840.31;;;-1.95;100.00
62103;BME280;48077;48.104;11.702;2023-03-04T00:36:10;95827.13;;;-2.03;100.00
62103;BME280;48077;48.104;11.702;2023-03-04T00:38:34;95844.56;;;-1.94;100.00
62103;BME280;48077;48.104;11.702;2023-03-04T00:40:57;95825.34;;;-2.03;100.00
62103;BME280;48077;48.104;11.702;2023-03-04T00:43:20;95824.66;;;-2.05;100.00
62103;BME280;48077;48.104;11.702;2023-03-04T00:45:44;95844.94;;;-1.89;100.00
62103;BME280;48077;48.104;11.702;2023-03-04T00:48:07;95837.25;;;-1.90;100.00
62103;BME280;48077;48.104;11.702;2023-03-04T00:50:31;95826.19;;;-2.02;100.00
62103;BME280;48077;48.104;11.702;2023-03-04T00:52:54;95827.28;;;-2.05;100.00
62103;BME280;48077;48.104;11.702;2023-03-04T00:55:17;95818.53;;;-2.13;100.00
62103;BME280;48077;48.104;11.702;2023-03-04T00:57:41;95809.63;;;-2.20;100.00
62103;BME280;48077;48.104;11.702;2023-03-04T01:00:05;95807.84;;;-2.20;100.00
62103;BME280;48077;48.104;11.702;2023-03-04T01:02:28;95806.72;;;-2.17;100.00
62103;BME280;48077;48.104;11.702;2023-03-04T01:04:52;95834.03;;;-2.02;100.00
62103;BME280;48077;48.104;11.702;2023-03-04T01:07:15;95830.81;;;-1.96;100.00
62103;BME280;48077;48.104;11.702;2023-03-04T01:09:38;95821.25;;;-2.05;100.00
62103;BME280;48077;48.104;11.702;2023-03-04T01:12:04;95793.97;;;-2.20;100.00
62103;BME280;48077;48.104;11.702;2023-03-04T01:14:30;95811.66;;;-2.14;100.00
62103;BME280;48077;48.104;11.702;2023-03-04T01:16:53;95827.28;;;-2.05;100.00
62103;BME280;48077;48.104;11.702;2023-03-04T01:19:17;95795.06;;;-2.23;100.00
62103;BME280;48077;48.104;11.702;2023-03-04T01:21:43;95821.00;;;-2.12;100.00
62103;BME280;48077;48.104;11.702;2023-03-04T01:24:07;95820.19;;;-2.12;100.00
62103;BME280;48077;48.104;11.702;2023-03-04T01:26:30;95801.13;;;-2.22;100.00
62103;BME280;48077;48.104;11.702;2023-03-04T01:28:53;95822.13;;;-2.14;100.00
62103;BME280;48077;48.104;11.702;2023-03-04T01:31:17;95795.91;;;-2.22;100.00
62103;BME280;48077;48.104;11.702;2023-03-04T01:33:40;95800.13;;;-2.21;100.00
62103;BME280;48077;48.104;11.702;2023-03-04T01:36:04;95792.59;;;-2.25;100.00
62103;BME280;48077;48.104;11.702;2023-03-04T01:38:27;95743.25;;;-2.55;100.00
62103;BME280;48077;48.104;11.702;2023-03-04T01:40:51;95749.53;;;-2.48;100.00
62103;BME280;48077;48.104;11.702;2023-03-04T01:43:20;95806.69;;;-2.08;100.00
62103;BME280;48077;48.104;11.702;2023-03-04T01:45:46;95804.06;;;-2.08;100.00
62103;BME280;48077;48.104;11.702;2023-03-04T01:48:12;95782.06;;;-2.15;100.00
62103;BME280;48077;48.104;11.702;2023-03-04T01:50:37;95795.09;;;-2.05;100.00
62103;BME280;48077;48.104;11.702;2023-03-04T01:53:01;95795.09;;;-2.05;100.00
62103;BME280;48077;48.104;11.702;2023-03-04T01:55:24;95803.34;;;-2.00;100.00
62103;BME280;48077;48.104;11.702;2023-03-04T01:57:49;95767.91;;;-2.12;100.00
62103;BME280;48077;48.104;11.702;2023-03-04T02:00:24;95791.22;;;-2.01;100.00
62103;BME280;48077;48.104;11.702;2023-03-04T02:02:50;95790.69;;;-2.05;100.00
62103;BME280;48077;48.104;11.702;2023-03-04T02:05:16;95784.94;;;-2.08;100.00
62103;BME280;48077;48.104;11.702;2023-03-04T02:07:43;95765.34;;;-2.22;100.00
62103;BME280;48077;48.104;11.702;2023-03-04T02:10:07;95774.78;;;-2.11;100.00
62103;BME280;48077;48.104;11.702;2023-03-04T02:12:31;95765.03;;;-2.19;100.00
62103;BME280;48077;48.104;11.702;2023-03-04T02:14:54;95758.91;;;-2.28;100.00
62103;BME280;48077;48.104;11.702;2023-03-04T02:17:24;95729.03;;;-2.43;100.00
62103;BME280;48077;48.104;11.702;2023-03-04T02:22:25;95738.09;;;-2.37;100.00
62103;BME280;48077;48.104;11.702;2023-03-04T02:27:13;95751.38;;;-2.31;100.00
62103;BME280;48077;48.104;11.702;2023-03-04T02:29:37;95764.22;;;-2.19;100.00
62103;BME280;48077;48.104;11.702;2023-03-04T02:32:00;95731.59;;;-2.33;100.00
62103;BME280;48077;48.104;11.702;2023-03-04T02:34:28;95764.09;;;-2.18;100.00
62103;BME280;48077;48.104;11.702;2023-03-04T02:36:52;95742.19;;;-2.35;100.00
62103;BME280;48077;48.104;11.702;2023-03-04T02:41:42;95728.28;;;-2.53;100.00
62103;BME280;48077;48.104;11.702;2023-03-04T02:44:16;95735.78;;;-2.50;100.00
62103;BME280;48077;48.104;11.702;2023-03-04T02:46:40;95748.72;;;-2.49;100.00
62103;BME280;48077;48.104;11.702;2023-03-04T02:49:03;95742.00;;;-2.51;100.00
62103;BME280;48077;48.104;11.702;2023-03-04T02:51:27;95747.78;;;-2.48;100.00
62103;BME280;48077;48.104;11.702;2023-03-04T02:53:50;95742.00;;;-2.51;100.00
62103;BME280;48077;48.104;11.702;2023-03-04T02:56:14;95724.16;;;-2.56;100.00
62103;BME280;48077;48.104;11.702;2023-03-04T02:58:37;95757.34;;;-2.38;100.00
62103;BME280;48077;48.104;11.702;2023-03-04T03:01:02;95733.09;;;-2.58;100.00
62103;BME280;48077;48.104;11.702;2023-03-04T03:03:26;95755.31;;;-2.45;100.00
62103;BME280;48077;48.104;11.702;2023-03-04T03:05:49;95729.66;;;-2.59;100.00
62103;BME280;48077;48.104;11.702;2023-03-04T03:08:15;95753.50;;;-2.44;100.00
62103;BME280;48077;48.104;11.702;2023-03-04T03:10:39;95730.78;;;-2.61;100.00
62103;BME280;48077;48.104;11.702;2023-03-04T03:13:02;95726.69;;;-2.64;100.00
62103;BME280;48077;48.104;11.702;2023-03-04T03:15:26;95753.81;;;-2.47;100.00
62103;BME280;48077;48.104;11.702;2023-03-04T03:17:49;95730.78;;;-2.61;100.00
62103;BME280;48077;48.104;11.702;2023-03-04T03:20:13;95758.34;;;-2.49;100.00
62103;BME280;48077;48.104;11.702;2023-03-04T03:22:36;95745.88;;;-2.55;100.00
62103;BME280;48077;48.104;11.702;2023-03-04T03:25:00;95746.31;;;-2.60;100.00
62103;BME280;48077;48.104;11.702;2023-03-04T03:27:23;95761.69;;;-2.57;100.00
62103;BME280;48077;48.104;11.702;2023-03-04T03:29:48;95745.00;;;-2.74;100.00
62103;BME280;48077;48.104;11.702;2023-03-04T03:32:12;95764.19;;;-2.65;100.00
62103;BME280;48077;48.104;11.702;2023-03-04T03:34:38;95747.06;;;-2.77;100.00
62103;BME280;48077;48.104;11.702;2023-03-04T03:37:02;95759.03;;;-2.75;100.00
62103;BME280;48077;48.104;11.702;2023-03-04T03:39:25;95765.44;;;-2.69;100.00
62103;BME280;48077;48.104;11.702;2023-03-04T03:41:50;95748.31;;;-2.81;100.00
62103;BME280;48077;48.104;11.702;2023-03-04T03:44:14;95767.09;;;-2.68;100.00
62103;BME280;48077;48.104;11.702;2023-03-04T03:46:38;95709.78;;;-2.97;100.00
62103;BME280;48077;48.104;11.702;2023-03-04T03:49:04;95744.31;;;-2.76;100.00
62103;BME280;48077;48.104;11.702;2023-03-04T03:51:27;95754.19;;;-2.70;100.00
62103;BME280;48077;48.104;11.702;2023-03-04T03:53:53;95756.25;;;-2.73;100.00
62103;BME280;48077;48.104;11.702;2023-03-04T03:56:16;95720.09;;;-2.96;100.00
62103;BME280;48077;48.104;11.702;2023-03-04T03:58:40;95757.09;;;-2.73;100.00
62103;BME280;48077;48.104;11.702;2023-03-04T04:01:03;95717.31;;;-2.94;100.00
62103;BME280;48077;48.104;11.702;2023-03-04T04:03:26;95737.63;;;-2.88;100.00
62103;BME280;48077;48.104;11.702;2023-03-04T04:05:50;95748.19;;;-2.80;100.00
62103;BME280;48077;48.104;11.702;2023-03-04T04:08:15;95753.94;;;-2.76;100.00
62103;BME280;48077;48.104;11.702;2023-03-04T04:10:39;95750.78;;;-2.80;100.00
62103;BME280;48077;48.104;11.702;2023-03-04T04:13:02;95758.72;;;-2.72;100.00
62103;BME280;48077;48.104;11.702;2023-03-04T04:15:25;95746.56;;;-2.81;100.00
62103;BME280;48077;48.104;11.702;2023-03-04T04:17:49;95745.44;;;-2.78;100.00
62103;BME280;48077;48.104;11.702;2023-03-04T04:20:12;95754.38;;;-2.81;100.00
62103;BME280;48077;48.104;11.702;2023-03-04T04:22:35;95726.84;;;-3.03;100.00
62103;BME280;48077;48.104;11.702;2023-03-04T04:24:59;95739.88;;;-2.93;100.00
62103;BME280;48077;48.104;11.702;2023-03-04T04:27:24;95731.63;;;-2.98;100.00
62103;BME280;48077;48.104;11.702;2023-03-04T04:29:48;95758.63;;;-2.80;100.00
62103;BME280;48077;48.104;11.702;2023-03-04T04:32:11;95734.91;;;-2.96;100.00
62103;BME280;48077;48.104;11.702;2023-03-04T04:34:35;95735.88;;;-2.97;100.00
62103;BME280;48077;48.104;11.702;2023-03-04T04:36:58;95753.41;;;-2.80;100.00
62103;BME280;48077;48.104;11.702;2023-03-04T04:39:24;95763.16;;;-2.82;100.00
62103;BME280;48077;48.104;11.702;2023-03-04T04:41:48;95763.28;;;-2.83;100.00
62103;BME280;48077;48.104;11.702;2023-03-04T04:44:12;95733.84;;;-3.03;100.00
62103;BME280;48077;48.104;11.702;2023-03-04T04:46:35;95755.75;;;-2.87;100.00
62103;BME280;48077;48.104;11.702;2023-03-04T04:48:59;95738.38;;;-2.96;100.00
62103;BME280;48077;48.104;11.702;2023-03-04T04:51:22;95760.84;;;-2.85;100.00
62103;BME280;48077;48.104;11.702;2023-03-04T04:53:46;95756.31;;;-2.83;100.00
62103;BME280;48077;48.104;11.702;2023-03-04T04:56:17;95751.78;;;-2.81;100.00
62103;BME280;48077;48.104;11.702;2023-03-04T04:58:43;95746.81;;;-2.84;100.00
62103;BME280;48077;48.104;11.702;2023-03-04T05:01:07;95738.31;;;-2.86;100.00
62103;BME280;48077;48.104;11.702;2023-03-04T05:03:32;95749.66;;;-2.77;100.00
62103;BME280;48077;48.104;11.702;2023-03-04T05:05:56;95735.84;;;-2.88;100.00
62103;BME280;48077;48.104;11.702;2023-03-04T05:08:20;95755.88;;;-2.78;100.00
62103;BME280;48077;48.104;11.702;2023-03-04T05:10:43;95743.16;;;-2.91;100.00
62103;BME280;48077;48.104;11.702;2023-03-04T05:13:07;95758.06;;;-2.83;100.00
62103;BME280;48077;48.104;11.702;2023-03-04T05:15:30;95752.47;;;-2.89;100.00
62103;BME280;48077;48.104;11.702;2023-03-04T05:17:53;95763.84;;;-2.80;100.00
62103;BME280;48077;48.104;11.702;2023-03-04T05:20:17;95759.88;;;-2.84;100.00
62103;BME280;48077;48.104;11.702;2023-03-04T05:22:40;95756.44;;;-2.85;100.00
62103;BME280;48077;48.104;11.702;2023-03-04T05:25:04;95761.53;;;-2.83;100.00
62103;BME280;48077;48.104;11.702;2023-03-04T05:27:29;95745.34;;;-2.96;100.00
62103;BME280;48077;48.104;11.702;2023-03-04T05:29:53;95749.72;;;-2.87;100.00
62103;BME280;48077;48.104;11.702;2023-03-04T05:32:18;95723.16;;;-3.10;100.00
62103;BME280;48077;48.104;11.702;2023-03-04T05:34:42;95758.38;;;-2.87;100.00
62103;BME280;48077;48.104;11.702;2023-03-04T05:37:05;95737.69;;;-2.98;100.00
62103;BME280;48077;48.104;11.702;2023-03-04T05:39:28;95748.81;;;-2.96;100.00
62103;BME280;48077;48.104;11.702;2023-03-04T05:41:52;95754.41;;;-2.91;100.00
62103;BME280;48077;48.104;11.702;2023-03-04T05:44:17;95768.81;;;-2.87;100.00
62103;BME280;48077;48.104;11.702;2023-03-04T05:46:41;95758.94;;;-2.93;100.00
62103;BME280;48077;48.104;11.702;2023-03-04T05:49:04;95766.34;;;-2.88;100.00
62103;BME280;48077;48.104;11.702;2023-03-04T05:51:27;95749.22;;;-3.00;100.00
62103;BME280;48077;48.104;11.702;2023-03-04T05:53:51;95768.41;;;-2.92;100.00
62103;BME280;48077;48.104;11.702;2023-03-04T05:56:17;95770.06;;;-2.91;100.00
62103;BME280;48077;48.104;11.702;2023-03-04T05:58:41;95770.19;;;-2.92;100.00
62103;BME280;48077;48.104;11.702;2023-03-04T06:01:05;95758.56;;;-2.98;100.00
62103;BME280;48077;48.104;11.702;2023-03-04T06:03:29;95758.16;;;-3.03;100.00
62103;BME280;48077;48.104;11.702;2023-03-04T06:05:53;95760.91;;;-3.05;100.00
62103;BME280;48077;48.104;11.702;2023-03-04T06:08:16;95750.63;;;-3.06;100.00
62103;BME280;48077;48.104;11.702;2023-03-04T06:10:40;95775.44;;;-2.92;100.00
62103;BME280;48077;48.104;11.702;2023-03-04T06:13:04;95758.03;;;-3.01;100.00
62103;BME280;48077;48.104;11.702;2023-03-04T06:15:27;95770.09;;;-3.00;100.00
62103;BME280;48077;48.104;11.702;2023-03-04T06:17:51;95762.56;;;-3.03;100.00
62103;BME280;48077;48.104;11.702;2023-03-04T06:20:14;95783.38;;;-2.94;100.00
62103;BME280;48077;48.104;11.702;2023-03-04T06:22:38;95769.94;;;-2.99;100.00
62103;BME280;48077;48.104;11.702;2023-03-04T06:25:02;95795.16;;;-2.80;100.00
62103;BME280;48077;48.104;11.702;2023-03-04T06:27:26;95773.38;;;-2.89;100.00
62103;BME280;48077;48.104;11.702;2023-03-04T06:29:49;95782.00;;;-2.88;100.00
62103;BME280;48077;48.104;11.702;2023-03-04T06:32:12;95775.16;;;-2.89;100.00
62103;BME280;48077;48.104;11.702;2023-03-04T06:34:36;95803.41;;;-2.75;100.00
62103;BME280;48077;48.104;11.702;2023-03-04T06:36:59;95782.41;;;-2.83;100.00
62103;BME280;48077;48.104;11.702;2023-03-04T06:39:23;95788.69;;;-2.76;100.00
62103;BME280;48077;48.104;11.702;2023-03-04T06:41:46;95793.91;;;-2.66;100.00
62103;BME280;48077;48.104;11.702;2023-03-04T06:44:10;95800.19;;;-2.59;100.00
62103;BME280;48077;48.104;11.702;2023-03-04T06:46:34;95807.00;;;-2.48;100.00
62103;BME280;48077;48.104;11.702;2023-03-04T06:48:57;95788.47;;;-2.55;100.00
62103;BME280;48077;48.104;11.702;2023-03-04T06:51:20;95809.44;;;-2.37;100.00
62103;BME280;48077;48.104;11.702;2023-03-04T06:53:44;95785.84;;;-2.45;100.00
62103;BME280;48077;48.104;11.702;2023-03-04T06:56:10;95800.34;;;-2.33;100.00
62103;BME280;48077;48.104;11.702;2023-03-04T06:58:34;95806.25;;;-2.31;100.00
62103;BME280;48077;48.104;11.702;2023-03-04T07:01:19;95810.16;;;-2.17;100.00
62103;BME280;48077;48.104;11.702;2023-03-04T07:03:43;95793.41;;;-2.24;100.00
62103;BME280;48077;48.104;11.702;2023-03-04T07:06:12;95791.47;;;-2.22;100.00
62103;BME280;48077;48.104;11.702;2023-03-04T07:08:36;95807.03;;;-2.03;100.00
62103;BME280;48077;48.104;11.702;2023-03-04T07:10:59;95791.91;;;-1.99;100.00
62103;BME280;48077;48.104;11.702;2023-03-04T07:13:23;95797.88;;;-1.89;100.00
62103;BME280;48077;48.104;11.702;2023-03-04T07:15:46;95812.63;;;-1.70;100.00
62103;BME280;48077;48.104;11.702;2023-03-04T07:18:09;95800.75;;;-1.64;100.00
62103;BME280;48077;48.104;11.702;2023-03-04T07:20:33;95806.19;;;-1.57;100.00
62103;BME280;48077;48.104;11.702;2023-03-04T07:22:56;95807.09;;;-1.49;100.00
62103;BME280;48077;48.104;11.702;2023-03-04T07:25:19;95819.09;;;-1.38;100.00
62103;BME280;48077;48.104;11.702;2023-03-04T07:27:43;95810.66;;;-1.32;100.00
62103;BME280;48077;48.104;11.702;2023-03-04T07:30:07;95828.44;;;-1.17;100.00
62103;BME280;48077;48.104;11.702;2023-03-04T07:32:30;95824.53;;;-1.13;100.00
62103;BME280;48077;48.104;11.702;2023-03-04T07:34:56;95833.66;;;-0.99;100.00
62103;BME280;48077;48.104;11.702;2023-03-04T07:37:19;95835.97;;;-0.96;100.00
62103;BME280;48077;48.104;11.702;2023-03-04T07:39:43;95837.34;;;-0.84;100.00
62103;BME280;48077;48.104;11.702;2023-03-04T07:42:06;95819.03;;;-0.84;100.00
62103;BME280;48077;48.104;11.702;2023-03-04T07:44:29;95809.22;;;-0.82;100.00
62103;BME280;48077;48.104;11.702;2023-03-04T07:46:58;95807.94;;;-0.78;100.00
62103;BME280;48077;48.104;11.702;2023-03-04T07:49:22;95844.75;;;-0.53;100.00
62103;BME280;48077;48.104;11.702;2023-03-04T07:51:45;95837.56;;;-0.51;100.00
62103;BME280;48077;48.104;11.702;2023-03-04T07:54:08;95830.22;;;-0.48;100.00
62103;BME280;48077;48.104;11.702;2023-03-04T07:56:33;95838.81;;;-0.37;100.00
62103;BME280;48077;48.104;11.702;2023-03-04T07:58:56;95845.56;;;-0.27;100.00
62103;BME280;48077;48.104;11.702;2023-03-04T08:01:23;95835.53;;;-0.31;100.00
62103;BME280;48077;48.104;11.702;2023-03-04T08:03:47;95855.91;;;-0.17;100.00
62103;BME280;48077;48.104;11.702;2023-03-04T08:06:13;95849.88;;;-0.09;100.00
62103;BME280;48077;48.104;11.702;2023-03-04T08:08:37;95837.56;;;-0.17;100.00
62103;BME280;48077;48.104;11.702;2023-03-04T08:11:09;95862.72;;;0.02;100.00
62103;BME280;48077;48.104;11.702;2023-03-04T08:13:33;95849.78;;;0.01;100.00
62103;BME280;48077;48.104;11.702;2023-03-04T08:15:58;95848.63;;;0.03;100.00
62103;BME280;48077;48.104;11.702;2023-03-04T08:18:21;95852.91;;;0.12;100.00
62103;BME280;48077;48.104;11.702;2023-03-04T08:20:44;95855.91;;;0.26;100.00
62103;BME280;48077;48.104;11.702;2023-03-04T08:23:11;95838.84;;;0.22;100.00
62103;BME280;48077;48.104;11.702;2023-03-04T08:25:37;95843.97;;;0.31;100.00
62103;BME280;48077;48.104;11.702;2023-03-04T08:28:01;95843.16;;;0.39;100.00
62103;BME280;48077;48.104;11.702;2023-03-04T08:30:24;95845.16;;;0.53;100.00
62103;BME280;48077;48.104;11.702;2023-03-04T08:32:47;95838.44;;;0.59;100.00
62103;BME280;48077;48.104;11.702;2023-03-04T08:35:11;95843.88;;;0.74;100.00
62103;BME280;48077;48.104;11.702;2023-03-04T08:37:34;95839.78;;;0.71;100.00
62103;BME280;48077;48.104;11.702;2023-03-04T08:39:58;95828.28;;;0.72;100.00
62103;BME280;48077;48.104;11.702;2023-03-04T08:42:21;95839.94;;;0.78;98.98
62103;BME280;48077;48.104;11.702;2023-03-04T08:44:45;95849.28;;;0.89;98.81
62103;BME280;48077;48.104;11.702;2023-03-04T08:47:10;95855.22;;;0.99;98.51
62103;BME280;48077;48.104;11.702;2023-03-04T08:49:34;95860.13;;;1.10;97.98
62103;BME280;48077;48.104;11.702;2023-03-04T08:52:00;95843.88;;;1.15;97.44
62103;BME280;48077;48.104;11.702;2023-03-04T08:54:24;95854.84;;;1.27;96.99
62103;BME280;48077;48.104;11.702;2023-03-04T08:56:47;95819.25;;;1.16;95.24
62103;BME280;48077;48.104;11.702;2023-03-04T08:59:10;95849.59;;;1.43;94.04
62103;BME280;48077;48.104;11.702;2023-03-04T09:01:34;95828.72;;;1.41;93.58
62103;BME280;48077;48.104;11.702;2023-03-04T09:03:59;95847.28;;;1.56;92.83
62103;BME280;48077;48.104;11.702;2023-03-04T09:06:23;95861.34;;;1.72;92.25
62103;BME280;48077;48.104;11.702;2023-03-04T09:08:46;95852.00;;;1.77;91.25
62103;BME280;48077;48.104;11.702;2023-03-04T09:11:11;95837.66;;;1.80;89.76
62103;BME280;48077;48.104;11.702;2023-03-04T09:13:34;95843.72;;;1.89;89.45
62103;BME280;48077;48.104;11.702;2023-03-04T09:15:58;95852.75;;;1.94;88.28
62103;BME280;48077;48.104;11.702;2023-03-04T09:18:22;95844.50;;;1.97;86.94
62103;BME280;48077;48.104;11.702;2023-03-04T09:20:46;95839.06;;;1.99;87.52
62103;BME280;48077;48.104;11.702;2023-03-04T09:23:10;95825.13;;;1.98;87.54
62103;BME280;48077;48.104;11.702;2023-03-04T09:25:34;95820.78;;;2.06;87.28
62103;BME280;48077;48.104;11.702;2023-03-04T09:27:57;95812.06;;;2.13;86.79
62103;BME280;48077;48.104;11.702;2023-03-04T09:30:21;95812.34;;;2.18;86.76
62103;BME280;48077;48.104;11.702;2023-03-04T09:32:46;95805.69;;;2.31;84.57
62103;BME280;48077;48.104;11.702;2023-03-04T09:35:10;95817.31;;;2.45;84.85
62103;BME280;48077;48.104;11.702;2023-03-04T09:37:33;95832.84;;;2.62;84.39
62103;BME280;48077;48.104;11.702;2023-03-04T09:39:57;95839.69;;;2.72;83.67
62103;BME280;48077;48.104;11.702;2023-03-04T09:42:31;95820.88;;;2.75;83.38
62103;BME280;48077;48.104;11.702;2023-03-04T09:44:56;95824.94;;;2.86;83.42
62103;BME280;48077;48.104;11.702;2023-03-04T09:47:22;95819.78;;;2.92;83.15
62103;BME280;48077;48.104;11.702;2023-03-04T09:49:59;95820.88;;;3.21;81.42
62103;BME280;48077;48.104;11.702;2023-03-04T09:55:24;95831.53;;;3.57;78.99
62103;BME280;48077;48.104;11.702;2023-03-04T09:58:06;95824.44;;;3.58;78.28
62103;BME280;48077;48.104;11.702;2023-03-04T10:00:41;95826.72;;;3.61;77.83
62103;BME280;48077;48.104;11.702;2023-03-04T10:05:37;95819.00;;;3.74;77.02
62103;BME280;48077;48.104;11.702;2023-03-04T10:10:39;95800.34;;;3.76;74.18
62103;BME280;48077;48.104;11.702;2023-03-04T10:13:12;95810.97;;;3.97;74.02
62103;BME280;48077;48.104;11.702;2023-03-04T10:15:39;95789.16;;;3.89;72.88
62103;BME280;48077;48.104;11.702;2023-03-04T10:18:21;95808.88;;;4.08;72.87
62103;BME280;48077;48.104;11.702;2023-03-04T10:20:54;95796.72;;;4.28;71.88
62103;BME280;48077;48.104;11.702;2023-03-04T10:23:21;95795.44;;;4.60;69.46
62103;BME280;48077;48.104;11.702;2023-03-04T10:25:46;95784.63;;;4.55;68.48
62103;BME280;48077;48.104;11.702;2023-03-04T10:28:18;95805.34;;;4.73;68.77
62103;BME280;48077;48.104;11.702;2023-03-04T10:31:05;95796.97;;;4.91;67.05
62103;BME280;48077;48.104;11.702;2023-03-04T10:33:39;95788.59;;;5.09;66.56
62103;BME280;48077;48.104;11.702;2023-03-04T10:38:47;95775.59;;;5.14;64.93
62103;BME280;48077;48.104;11.702;2023-03-04T10:41:20;95771.78;;;5.17;63.44
62103;BME280;48077;48.104;11.702;2023-03-04T10:43:51;95772.59;;;5.17;62.99
62103;BME280;48077;48.104;11.702;2023-03-04T10:46:22;95785.53;;;5.34;63.95
62103;BME280;48077;48.104;11.702;2023-03-04T10:48:46;95786.22;;;5.49;63.56
62103;BME280;48077;48.104;11.702;2023-03-04T10:51:17;95785.97;;;5.72;62.99
62103;BME280;48077;48.104;11.702;2023-03-04T10:53:43;95784.03;;;5.87;62.03
62103;BME280;48077;48.104;11.702;2023-03-04T10:56:34;95788.22;;;6.10;61.59
62103;BME280;48077;48.104;11.702;2023-03-04T10:59:46;95774.44;;;6.35;61.52
62103;BME280;48077;48.104;11.702;2023-03-04T11:02:27;95777.38;;;6.60;60.54
62103;BME280;48077;48.104;11.702;2023-03-04T11:08:15;95777.03;;;7.03;59.86
62103;BME280;48077;48.104;11.702;2023-03-04T11:10:39;95756.63;;;7.10;59.44
62103;BME280;48077;48.104;11.702;2023-03-04T11:13:19;95767.66;;;7.34;58.77
62103;BME280;48077;48.104;11.702;2023-03-04T11:16:03;95746.00;;;7.30;57.83
62103;BME280;48077;48.104;11.702;2023-03-04T11:18:30;95765.59;;;7.42;57.87
62103;BME280;48077;48.104;11.702;2023-03-04T11:20:57;95747.19;;;7.47;57.48
62103;BME280;48077;48.104;11.702;2023-03-04T11:26:13;95752.56;;;7.21;55.76
62103;BME280;48077;48.104;11.702;2023-03-04T11:28:46;95760.50;;;7.34;56.59
62103;BME280;48077;48.104;11.702;2023-03-04T11:31:22;95753.75;;;6.92;57.94
62103;BME280;48077;48.104;11.702;2023-03-04T11:34:29;95760.91;;;7.18;56.96
62103;BME280;48077;48.104;11.702;2023-03-04T11:37:03;95749.69;;;7.22;56.42
62103;BME280;48077;48.104;11.702;2023-03-04T11:39:33;95768.03;;;7.30;57.23
62103;BME280;48077;48.104;11.702;2023-03-04T11:42:03;95758.25;;;7.44;55.75
62103;BME280;48077;48.104;11.702;2023-03-04T11:44:29;95752.91;;;7.51;56.39
62103;BME280;48077;48.104;11.702;2023-03-04T12:02:34;95741.91;;;8.58;52.76
62103;BME280;48077;48.104;11.702;2023-03-04T12:05:30;95739.25;;;8.58;51.83
62103;BME280;48077;48.104;11.702;2023-03-04T12:10:59;95728.06;;;9.06;52.29
62103;BME280;48077;48.104;11.702;2023-03-04T12:13:40;95735.50;;;8.97;52.33
62103;BME280;48077;48.104;11.702;2023-03-04T12:18:54;95702.28;;;8.49;53.34
62103;BME280;48077;48.104;11.702;2023-03-04T12:22:44;95721.09;;;8.55;53.66
62103;BME280;48077;48.104;11.702;2023-03-04T12:25:12;95665.34;;;8.03;54.67
62103;BME280;48077;48.104;11.702;2023-03-04T12:32:48;95706.59;;;8.05;53.78
62103;BME280;48077;48.104;11.702;2023-03-04T12:40:37;95693.50;;;8.10;53.09
62103;BME280;48077;48.104;11.702;2023-03-04T12:43:20;95689.84;;;8.05;53.59
62103;BME280;48077;48.104;11.702;2023-03-04T12:48:34;95689.00;;;8.49;52.24
62103;BME280;48077;48.104;11.702;2023-03-04T12:51:28;95688.34;;;8.54;53.98
62103;BME280;48077;48.104;11.702;2023-03-04T12:56:27;95680.53;;;8.27;53.59
62103;BME280;48077;48.104;11.702;2023-03-04T12:58:53;95646.75;;;8.03;53.64
62103;BME280;48077;48.104;11.702;2023-03-04T13:01:33;95654.66;;;8.09;53.32
62103;BME280;48077;48.104;11.702;2023-03-04T13:04:08;95675.16;;;8.02;54.67
62103;BME280;48077;48.104;11.702;2023-03-04T13:09:33;95659.28;;;7.82;56.13
62103;BME280;48077;48.104;11.702;2023-03-04T13:14:28;95653.66;;;7.65;56.00
62103;BME280;48077;48.104;11.702;2023-03-04T13:16:54;95645.75;;;7.45;56.67
62103;BME280;48077;48.104;11.702;2023-03-04T13:19:48;95653.47;;;7.54;56.44
62103;BME280;48077;48.104;11.702;2023-03-04T13:24:55;95649.38;;;7.58;57.40
62103;BME280;48077;48.104;11.702;2023-03-04T13:27:45;95653.56;;;7.85;56.18
62103;BME280;48077;48.104;11.702;2023-03-04T13:48:40;95645.19;;;8.20;56.90
62103;BME280;48077;48.104;11.702;2023-03-04T13:51:13;95637.19;;;8.27;55.71
62103;BME280;48077;48.104;11.702;2023-03-04T13:53:40;95623.00;;;8.08;56.42
62103;BME280;48077;48.104;11.702;2023-03-04T13:56:17;95627.81;;;8.24;55.69
62103;BME280;48077;48.104;11.702;2023-03-04T13:58:43;95628.84;;;8.23;55.51
62103;BME280;48077;48.104;11.702;2023-03-04T14:01:29;95612.75;;;8.11;57.01
62103;BME280;48077;48.104;11.702;2023-03-04T14:03:54;95614.88;;;8.03;55.40
62103;BME280;48077;48.104;11.702;2023-03-04T14:06:20;95631.78;;;7.70;56.66
62103;BME280;48077;48.104;11.702;2023-03-04T14:08:45;95624.09;;;7.55;57.51
62103;BME280;48077;48.104;11.702;2023-03-04T14:11:14;95633.09;;;7.47;58.65